sensor_id;sensor_type;location;lat;lon;timestamp;temperature;humidity
46231;DHT22;31949;51.404;-0.038;2023-04-15T00:01:52;8.40;99.90
46231;DHT22;31949;51.404;-0.038;2023-04-15T00:04:20;8.40;99.90
46231;DHT22;31949;51.404;-0.038;2023-04-15T00:06:51;8.40;99.90
46231;DHT22;31949;51.404;-0.038;2023-04-15T00:09:21;8.30;99.90
46231;DHT22;31949;51.404;-0.038;2023-04-15T00:11:49;8.30;99.90
46231;DHT22;31949;51.404;-0.038;2023-04-15T00:14:17;8.20;99.90
46231;DHT22;31949;51.404;-0.038;2023-04-15T00:16:44;8.20;99.90
46231;DHT22;31949;51.404;-0.038;2023-04-15T00:19:12;8.20;99.90
46231;DHT22;31949;51.404;-0.038;2023-04-15T00:21:39;8.20;99.90
46231;DHT22;31949;51.404;-0.038;2023-04-15T00:24:07;8.20;99.90
46231;DHT22;31949;51.404;-0.038;2023-04-15T00:26:35;8.10;99.90
46231;DHT22;31949;51.404;-0.038;2023-04-15T00:29:02;8.10;99.90
46231;DHT22;31949;51.404;-0.038;2023-04-15T00:31:30;8.10;99.90
46231;DHT22;31949;51.404;-0.038;2023-04-15T00:33:58;8.10;99.90
46231;DHT22;31949;51.404;-0.038;2023-04-15T00:36:26;8.10;99.90
46231;DHT22;31949;51.404;-0.038;2023-04-15T00:38:53;8.10;99.90
46231;DHT22;31949;51.404;-0.038;2023-04-15T00:41:21;8.10;99.90
46231;DHT22;31949;51.404;-0.038;2023-04-15T00:43:49;8.10;99.90
46231;DHT22;31949;51.404;-0.038;2023-04-15T00:46:16;8.00;99.90
46231;DHT22;31949;51.404;-0.038;2023-04-15T00:48:46;8.00;99.90
46231;DHT22;31949;51.404;-0.038;2023-04-15T00:51:14;8.00;99.90
46231;DHT22;31949;51.404;-0.038;2023-04-15T00:53:42;8.00;99.90
46231;DHT22;31949;51.404;-0.038;2023-04-15T00:56:10;8.10;99.90
46231;DHT22;31949;51.404;-0.038;2023-04-15T00:58:37;8.10;99.90
46231;DHT22;31949;51.404;-0.038;2023-04-15T01:01:04;8.10;99.90
46231;DHT22;31949;51.404;-0.038;2023-04-15T01:03:32;8.10;99.90
46231;DHT22;31949;51.404;-0.038;2023-04-15T01:06:00;8.10;99.90
46231;DHT22;31949;51.404;-0.038;2023-04-15T01:08:30;8.10;99.90
46231;DHT22;31949;51.404;-0.038;2023-04-15T01:10:59;8.10;99.90
46231;DHT22;31949;51.404;-0.038;2023-04-15T01:13:28;8.20;99.90
46231;DHT22;31949;51.404;-0.038;2023-04-15T01:15:56;8.20;99.90
46231;DHT22;31949;51.404;-0.038;2023-04-15T01:18:24;8.20;99.90
46231;DHT22;31949;51.404;-0.038;2023-04-15T01:20:52;8.20;99.90
46231;DHT22;31949;51.404;-0.038;2023-04-15T01:23:23;8.20;99.90
46231;DHT22;31949;51.404;-0.038;2023-04-15T01:25:52;8.10;99.90
46231;DHT22;31949;51.404;-0.038;2023-04-15T01:28:19;8.10;99.90
46231;DHT22;31949;51.404;-0.038;2023-04-15T01:30:47;8.10;99.90
46231;DHT22;31949;51.404;-0.038;2023-04-15T01:33:15;8.20;99.90
46231;DHT22;31949;51.404;-0.038;2023-04-15T01:36:04;8.20;99.90
46231;DHT22;31949;51.404;-0.038;2023-04-15T01:38:32;8.10;99.90
46231;DHT22;31949;51.404;-0.038;2023-04-15T01:41:00;8.10;99.90
46231;DHT22;31949;51.404;-0.038;2023-04-15T01:43:30;8.10;99.90
46231;DHT22;31949;51.404;-0.038;2023-04-15T01:45:58;8.10;99.90
46231;DHT22;31949;51.404;-0.038;2023-04-15T01:48:28;8.10;99.90
46231;DHT22;31949;51.404;-0.038;2023-04-15T01:50:57;8.10;99.90
46231;DHT22;31949;51.404;-0.038;2023-04-15T01:53:26;8.10;99.90
46231;DHT22;31949;51.404;-0.038;2023-04-15T01:55:54;8.00;99.90
46231;DHT22;31949;51.404;-0.038;2023-04-15T01:58:23;8.00;99.90
46231;DHT22;31949;51.404;-0.038;2023-04-15T02:00:52;8.00;99.90
46231;DHT22;31949;51.404;-0.038;2023-04-15T02:03:21;8.00;99.90
46231;DHT22;31949;51.404;-0.038;2023-04-15T02:05:53;7.90;99.90
46231;DHT22;31949;51.404;-0.038;2023-04-15T02:08:22;7.90;99.90
46231;DHT22;31949;51.404;-0.038;2023-04-15T02:10:51;8.00;99.90
46231;DHT22;31949;51.404;-0.038;2023-04-15T02:13:20;7.90;99.90
46231;DHT22;31949;51.404;-0.038;2023-04-15T02:15:49;7.90;99.90
46231;DHT22;31949;51.404;-0.038;2023-04-15T02:18:20;7.90;99.90
46231;DHT22;31949;51.404;-0.038;2023-04-15T02:20:51;7.90;99.90
46231;DHT22;31949;51.404;-0.038;2023-04-15T02:23:19;7.90;99.90
46231;DHT22;31949;51.404;-0.038;2023-04-15T02:25:48;8.00;99.90
46231;DHT22;31949;51.404;-0.038;2023-04-15T02:28:21;7.90;99.90
46231;DHT22;31949;51.404;-0.038;2023-04-15T02:30:49;7.90;99.90
46231;DHT22;31949;51.404;-0.038;2023-04-15T02:33:20;7.80;99.90
46231;DHT22;31949;51.404;-0.038;2023-04-15T02:35:49;7.80;99.90
46231;DHT22;31949;51.404;-0.038;2023-04-15T02:38:18;7.80;99.90
46231;DHT22;31949;51.404;-0.038;2023-04-15T02:40:47;7.80;99.90
46231;DHT22;31949;51.404;-0.038;2023-04-15T02:43:17;7.70;99.90
46231;DHT22;31949;51.404;-0.038;2023-04-15T02:45:46;7.70;99.90
46231;DHT22;31949;51.404;-0.038;2023-04-15T02:48:15;7.70;99.90
46231;DHT22;31949;51.404;-0.038;2023-04-15T02:50:46;7.60;99.90
46231;DHT22;31949;51.404;-0.038;2023-04-15T02:53:17;7.60;99.90
46231;DHT22;31949;51.404;-0.038;2023-04-15T02:55:47;7.50;99.90
46231;DHT22;31949;51.404;-0.038;2023-04-15T02:58:15;7.50;99.90
46231;DHT22;31949;51.404;-0.038;2023-04-15T03:00:44;7.60;99.90
46231;DHT22;31949;51.404;-0.038;2023-04-15T03:03:12;7.50;99.90
46231;DHT22;31949;51.404;-0.038;2023-04-15T03:05:43;7.60;99.90
46231;DHT22;31949;51.404;-0.038;2023-04-15T03:08:12;7.50;99.90
46231;DHT22;31949;51.404;-0.038;2023-04-15T03:10:42;7.50;99.90
46231;DHT22;31949;51.404;-0.038;2023-04-15T03:13:10;7.50;99.90
46231;DHT22;31949;51.404;-0.038;2023-04-15T03:15:39;7.50;99.90
46231;DHT22;31949;51.404;-0.038;2023-04-15T03:18:08;7.50;99.90
46231;DHT22;31949;51.404;-0.038;2023-04-15T03:20:36;7.60;99.90
46231;DHT22;31949;51.404;-0.038;2023-04-15T03:23:05;7.60;99.90
46231;DHT22;31949;51.404;-0.038;2023-04-15T03:25:33;7.60;99.90
46231;DHT22;31949;51.404;-0.038;2023-04-15T03:28:06;7.60;99.90
46231;DHT22;31949;51.404;-0.038;2023-04-15T03:30:34;7.60;99.90
46231;DHT22;31949;51.404;-0.038;2023-04-15T03:33:03;7.60;99.90
46231;DHT22;31949;51.404;-0.038;2023-04-15T03:35:32;7.60;99.90
46231;DHT22;31949;51.404;-0.038;2023-04-15T03:38:01;7.60;99.90
46231;DHT22;31949;51.404;-0.038;2023-04-15T03:40:29;7.70;99.90
46231;DHT22;31949;51.404;-0.038;2023-04-15T03:42:58;7.70;99.90
46231;DHT22;31949;51.404;-0.038;2023-04-15T03:45:26;7.70;99.90
46231;DHT22;31949;51.404;-0.038;2023-04-15T03:47:55;7.70;99.90
46231;DHT22;31949;51.404;-0.038;2023-04-15T03:50:38;7.60;99.90
46231;DHT22;31949;51.404;-0.038;2023-04-15T03:53:06;7.60;99.90
46231;DHT22;31949;51.404;-0.038;2023-04-15T03:55:35;7.60;99.90
46231;DHT22;31949;51.404;-0.038;2023-04-15T03:58:04;7.60;99.90
46231;DHT22;31949;51.404;-0.038;2023-04-15T04:00:32;7.70;99.90
46231;DHT22;31949;51.404;-0.038;2023-04-15T04:03:01;7.70;99.90
46231;DHT22;31949;51.404;-0.038;2023-04-15T04:05:30;7.70;99.90
46231;DHT22;31949;51.404;-0.038;2023-04-15T04:07:58;7.70;99.90
46231;DHT22;31949;51.404;-0.038;2023-04-15T04:10:27;7.70;99.90
46231;DHT22;31949;51.404;-0.038;2023-04-15T04:12:56;7.80;99.90
46231;DHT22;31949;51.404;-0.038;2023-04-15T04:15:24;7.80;99.90
46231;DHT22;31949;51.404;-0.038;2023-04-15T04:17:53;7.80;99.90
46231;DHT22;31949;51.404;-0.038;2023-04-15T04:20:22;7.80;99.90
46231;DHT22;31949;51.404;-0.038;2023-04-15T04:22:50;7.80;99.90
46231;DHT22;31949;51.404;-0.038;2023-04-15T04:25:19;7.70;99.90
46231;DHT22;31949;51.404;-0.038;2023-04-15T04:27:47;7.70;99.90
46231;DHT22;31949;51.404;-0.038;2023-04-15T04:30:16;7.70;99.90
46231;DHT22;31949;51.404;-0.038;2023-04-15T04:32:44;7.70;99.90
46231;DHT22;31949;51.404;-0.038;2023-04-15T04:35:13;7.70;99.90
46231;DHT22;31949;51.404;-0.038;2023-04-15T04:37:41;7.70;99.90
46231;DHT22;31949;51.404;-0.038;2023-04-15T04:40:10;7.70;99.90
46231;DHT22;31949;51.404;-0.038;2023-04-15T04:42:39;7.70;99.90
46231;DHT22;31949;51.404;-0.038;2023-04-15T04:45:08;7.70;99.90
46231;DHT22;31949;51.404;-0.038;2023-04-15T04:47:36;7.80;99.90
46231;DHT22;31949;51.404;-0.038;2023-04-15T04:50:05;7.80;99.90
46231;DHT22;31949;51.404;-0.038;2023-04-15T04:52:34;7.80;99.90
46231;DHT22;31949;51.404;-0.038;2023-04-15T04:55:02;7.70;99.90
46231;DHT22;31949;51.404;-0.038;2023-04-15T04:57:31;7.80;99.90
46231;DHT22;31949;51.404;-0.038;2023-04-15T04:59:59;7.80;99.90
46231;DHT22;31949;51.404;-0.038;2023-04-15T05:02:28;7.80;99.90
46231;DHT22;31949;51.404;-0.038;2023-04-15T05:04:56;7.80;99.90
46231;DHT22;31949;51.404;-0.038;2023-04-15T05:07:25;7.80;99.90
46231;DHT22;31949;51.404;-0.038;2023-04-15T05:09:54;7.80;99.90
46231;DHT22;31949;51.404;-0.038;2023-04-15T05:12:23;7.80;99.90
46231;DHT22;31949;51.404;-0.038;2023-04-15T05:14:51;7.80;99.90
46231;DHT22;31949;51.404;-0.038;2023-04-15T05:17:20;7.70;99.90
46231;DHT22;31949;51.404;-0.038;2023-04-15T05:19:48;7.70;99.90
46231;DHT22;31949;51.404;-0.038;2023-04-15T05:22:17;7.70;99.90
46231;DHT22;31949;51.404;-0.038;2023-04-15T05:24:45;7.80;99.90
46231;DHT22;31949;51.404;-0.038;2023-04-15T05:27:14;7.80;99.90
46231;DHT22;31949;51.404;-0.038;2023-04-15T05:29:42;7.80;99.90
46231;DHT22;31949;51.404;-0.038;2023-04-15T05:32:11;7.80;99.90
46231;DHT22;31949;51.404;-0.038;2023-04-15T05:34:39;7.80;99.90
46231;DHT22;31949;51.404;-0.038;2023-04-15T05:37:08;7.80;99.90
46231;DHT22;31949;51.404;-0.038;2023-04-15T05:39:37;7.90;99.90
46231;DHT22;31949;51.404;-0.038;2023-04-15T05:42:05;7.90;99.90
46231;DHT22;31949;51.404;-0.038;2023-04-15T05:44:34;7.90;99.90
46231;DHT22;31949;51.404;-0.038;2023-04-15T05:47:03;7.90;99.90
46231;DHT22;31949;51.404;-0.038;2023-04-15T05:49:33;7.90;99.90
46231;DHT22;31949;51.404;-0.038;2023-04-15T05:52:02;7.90;99.90
46231;DHT22;31949;51.404;-0.038;2023-04-15T05:54:31;8.00;99.90
46231;DHT22;31949;51.404;-0.038;2023-04-15T05:56:59;8.00;99.90
46231;DHT22;31949;51.404;-0.038;2023-04-15T05:59:28;8.00;99.90
46231;DHT22;31949;51.404;-0.038;2023-04-15T06:01:56;8.10;99.90
46231;DHT22;31949;51.404;-0.038;2023-04-15T06:04:25;8.00;99.90
46231;DHT22;31949;51.404;-0.038;2023-04-15T06:06:53;8.00;99.90
46231;DHT22;31949;51.404;-0.038;2023-04-15T06:09:22;8.00;99.90
46231;DHT22;31949;51.404;-0.038;2023-04-15T06:11:51;8.00;99.90
46231;DHT22;31949;51.404;-0.038;2023-04-15T06:14:20;8.10;99.90
46231;DHT22;31949;51.404;-0.038;2023-04-15T06:16:48;8.10;99.90
46231;DHT22;31949;51.404;-0.038;2023-04-15T06:19:17;8.10;99.90
46231;DHT22;31949;51.404;-0.038;2023-04-15T06:21:46;8.10;99.90
46231;DHT22;31949;51.404;-0.038;2023-04-15T06:24:15;8.20;99.90
46231;DHT22;31949;51.404;-0.038;2023-04-15T06:26:43;8.20;99.90
46231;DHT22;31949;51.404;-0.038;2023-04-15T06:29:12;8.20;99.90
46231;DHT22;31949;51.404;-0.038;2023-04-15T06:31:41;8.20;99.90
46231;DHT22;31949;51.404;-0.038;2023-04-15T06:34:09;8.20;99.90
46231;DHT22;31949;51.404;-0.038;2023-04-15T06:36:38;8.20;99.90
46231;DHT22;31949;51.404;-0.038;2023-04-15T06:39:06;8.20;99.90
46231;DHT22;31949;51.404;-0.038;2023-04-15T06:41:35;8.30;99.90
46231;DHT22;31949;51.404;-0.038;2023-04-15T06:44:04;8.30;99.90
46231;DHT22;31949;51.404;-0.038;2023-04-15T06:46:33;8.30;99.90
46231;DHT22;31949;51.404;-0.038;2023-04-15T06:49:02;8.30;99.90
46231;DHT22;31949;51.404;-0.038;2023-04-15T06:51:31;8.30;99.90
46231;DHT22;31949;51.404;-0.038;2023-04-15T06:54:00;8.30;99.90
46231;DHT22;31949;51.404;-0.038;2023-04-15T06:56:29;8.40;99.90
46231;DHT22;31949;51.404;-0.038;2023-04-15T06:58:58;8.40;99.90
46231;DHT22;31949;51.404;-0.038;2023-04-15T07:01:26;8.40;99.90
46231;DHT22;31949;51.404;-0.038;2023-04-15T07:03:55;8.50;99.90
46231;DHT22;31949;51.404;-0.038;2023-04-15T07:06:24;8.50;99.90
46231;DHT22;31949;51.404;-0.038;2023-04-15T07:08:53;8.50;99.90
46231;DHT22;31949;51.404;-0.038;2023-04-15T07:11:24;8.50;99.90
46231;DHT22;31949;51.404;-0.038;2023-04-15T07:13:53;8.50;99.90
46231;DHT22;31949;51.404;-0.038;2023-04-15T07:16:22;8.60;99.90
46231;DHT22;31949;51.404;-0.038;2023-04-15T07:18:51;8.60;99.90
46231;DHT22;31949;51.404;-0.038;2023-04-15T07:21:20;8.60;99.90
46231;DHT22;31949;51.404;-0.038;2023-04-15T07:23:49;8.60;99.90
46231;DHT22;31949;51.404;-0.038;2023-04-15T07:26:17;8.60;99.90
46231;DHT22;31949;51.404;-0.038;2023-04-15T07:28:46;8.60;99.90
46231;DHT22;31949;51.404;-0.038;2023-04-15T07:31:14;8.60;99.90
46231;DHT22;31949;51.404;-0.038;2023-04-15T07:33:44;8.60;99.90
46231;DHT22;31949;51.404;-0.038;2023-04-15T07:36:12;8.60;99.90
46231;DHT22;31949;51.404;-0.038;2023-04-15T07:38:41;8.60;99.90
46231;DHT22;31949;51.404;-0.038;2023-04-15T07:41:10;8.50;99.90
46231;DHT22;31949;51.404;-0.038;2023-04-15T07:43:39;8.60;99.90
46231;DHT22;31949;51.404;-0.038;2023-04-15T07:46:07;8.60;99.90
46231;DHT22;31949;51.404;-0.038;2023-04-15T07:48:36;8.50;99.90
46231;DHT22;31949;51.404;-0.038;2023-04-15T07:51:05;8.60;99.90
46231;DHT22;31949;51.404;-0.038;2023-04-15T07:53:33;8.60;99.90
46231;DHT22;31949;51.404;-0.038;2023-04-15T07:56:02;8.50;99.90
46231;DHT22;31949;51.404;-0.038;2023-04-15T07:58:30;8.60;99.90
46231;DHT22;31949;51.404;-0.038;2023-04-15T08:00:59;8.60;99.90
46231;DHT22;31949;51.404;-0.038;2023-04-15T08:03:28;8.60;99.90
46231;DHT22;31949;51.404;-0.038;2023-04-15T08:05:56;8.60;99.90
46231;DHT22;31949;51.404;-0.038;2023-04-15T08:08:25;8.60;99.90
46231;DHT22;31949;51.404;-0.038;2023-04-15T08:10:54;8.70;99.90
46231;DHT22;31949;51.404;-0.038;2023-04-15T08:13:25;8.70;99.90
46231;DHT22;31949;51.404;-0.038;2023-04-15T08:16:16;8.70;99.90
46231;DHT22;31949;51.404;-0.038;2023-04-15T08:18:47;8.80;99.90
46231;DHT22;31949;51.404;-0.038;2023-04-15T08:21:17;8.80;99.90
46231;DHT22;31949;51.404;-0.038;2023-04-15T08:23:48;8.90;99.90
46231;DHT22;31949;51.404;-0.038;2023-04-15T08:26:20;9.00;99.90
46231;DHT22;31949;51.404;-0.038;2023-04-15T08:28:49;9.00;99.90
46231;DHT22;31949;51.404;-0.038;2023-04-15T08:31:18;9.10;99.90
46231;DHT22;31949;51.404;-0.038;2023-04-15T08:33:46;9.20;99.90
46231;DHT22;31949;51.404;-0.038;2023-04-15T08:36:15;9.20;99.90
46231;DHT22;31949;51.404;-0.038;2023-04-15T08:38:44;9.30;99.90
46231;DHT22;31949;51.404;-0.038;2023-04-15T08:41:23;9.20;99.90
46231;DHT22;31949;51.404;-0.038;2023-04-15T08:44:02;9.30;99.90
46231;DHT22;31949;51.404;-0.038;2023-04-15T08:46:32;9.50;99.90
46231;DHT22;31949;51.404;-0.038;2023-04-15T08:49:03;9.40;99.90
46231;DHT22;31949;51.404;-0.038;2023-04-15T08:51:32;9.50;99.90
46231;DHT22;31949;51.404;-0.038;2023-04-15T08:54:02;9.50;99.90
46231;DHT22;31949;51.404;-0.038;2023-04-15T08:56:32;9.60;99.90
46231;DHT22;31949;51.404;-0.038;2023-04-15T08:59:01;9.60;99.90
46231;DHT22;31949;51.404;-0.038;2023-04-15T09:01:31;9.60;99.90
46231;DHT22;31949;51.404;-0.038;2023-04-15T09:04:02;9.60;99.90
46231;DHT22;31949;51.404;-0.038;2023-04-15T09:06:30;9.70;99.90
46231;DHT22;31949;51.404;-0.038;2023-04-15T09:08:59;9.80;99.90
46231;DHT22;31949;51.404;-0.038;2023-04-15T09:11:29;9.80;99.90
46231;DHT22;31949;51.404;-0.038;2023-04-15T09:13:59;9.90;99.90
46231;DHT22;31949;51.404;-0.038;2023-04-15T09:16:27;9.90;99.90
46231;DHT22;31949;51.404;-0.038;2023-04-15T09:18:56;9.90;99.90
46231;DHT22;31949;51.404;-0.038;2023-04-15T09:21:24;10.00;99.90
46231;DHT22;31949;51.404;-0.038;2023-04-15T09:23:56;10.10;99.90
46231;DHT22;31949;51.404;-0.038;2023-04-15T09:26:36;10.10;99.90
46231;DHT22;31949;51.404;-0.038;2023-04-15T09:29:09;10.20;99.90
46231;DHT22;31949;51.404;-0.038;2023-04-15T09:31:39;10.30;99.90
46231;DHT22;31949;51.404;-0.038;2023-04-15T09:34:08;10.30;99.90
46231;DHT22;31949;51.404;-0.038;2023-04-15T09:36:55;10.30;99.90
46231;DHT22;31949;51.404;-0.038;2023-04-15T09:39:24;10.30;99.90
46231;DHT22;31949;51.404;-0.038;2023-04-15T09:42:11;10.20;99.90
46231;DHT22;31949;51.404;-0.038;2023-04-15T09:44:39;10.30;99.90
46231;DHT22;31949;51.404;-0.038;2023-04-15T09:47:08;10.30;99.90
46231;DHT22;31949;51.404;-0.038;2023-04-15T09:49:36;10.40;99.90
46231;DHT22;31949;51.404;-0.038;2023-04-15T09:52:05;10.50;99.90
46231;DHT22;31949;51.404;-0.038;2023-04-15T09:54:35;10.60;99.90
46231;DHT22;31949;51.404;-0.038;2023-04-15T09:57:05;10.60;99.90
46231;DHT22;31949;51.404;-0.038;2023-04-15T09:59:34;10.70;99.90
46231;DHT22;31949;51.404;-0.038;2023-04-15T10:02:06;10.70;99.90
46231;DHT22;31949;51.404;-0.038;2023-04-15T10:04:39;10.80;99.90
46231;DHT22;31949;51.404;-0.038;2023-04-15T10:07:09;11.00;99.90
46231;DHT22;31949;51.404;-0.038;2023-04-15T10:09:38;11.10;99.90
46231;DHT22;31949;51.404;-0.038;2023-04-15T10:12:07;11.20;99.90
46231;DHT22;31949;51.404;-0.038;2023-04-15T10:14:37;11.10;99.90
46231;DHT22;31949;51.404;-0.038;2023-04-15T10:17:06;11.20;99.90
46231;DHT22;31949;51.404;-0.038;2023-04-15T10:19:38;11.20;99.90
46231;DHT22;31949;51.404;-0.038;2023-04-15T10:22:07;11.30;99.90
46231;DHT22;31949;51.404;-0.038;2023-04-15T10:24:38;11.40;99.90
46231;DHT22;31949;51.404;-0.038;2023-04-15T10:27:07;11.50;99.90
46231;DHT22;31949;51.404;-0.038;2023-04-15T10:29:38;11.40;99.90
46231;DHT22;31949;51.404;-0.038;2023-04-15T10:32:07;11.40;99.90
46231;DHT22;31949;51.404;-0.038;2023-04-15T10:34:36;11.40;99.90
46231;DHT22;31949;51.404;-0.038;2023-04-15T10:37:08;11.40;99.90
46231;DHT22;31949;51.404;-0.038;2023-04-15T10:39:40;11.30;99.90
46231;DHT22;31949;51.404;-0.038;2023-04-15T10:42:12;11.40;99.90
46231;DHT22;31949;51.404;-0.038;2023-04-15T10:44:49;11.40;99.90
46231;DHT22;31949;51.404;-0.038;2023-04-15T10:47:21;11.30;99.90
46231;DHT22;31949;51.404;-0.038;2023-04-15T10:49:51;11.20;99.90
46231;DHT22;31949;51.404;-0.038;2023-04-15T10:52:25;11.10;99.90
46231;DHT22;31949;51.404;-0.038;2023-04-15T10:55:02;11.10;99.90
46231;DHT22;31949;51.404;-0.038;2023-04-15T10:57:37;11.10;99.90
46231;DHT22;31949;51.404;-0.038;2023-04-15T11:00:16;11.10;99.90
46231;DHT22;31949;51.404;-0.038;2023-04-15T11:02:55;11.20;99.90
46231;DHT22;31949;51.404;-0.038;2023-04-15T11:05:48;11.20;99.90
46231;DHT22;31949;51.404;-0.038;2023-04-15T11:08:17;11.40;99.90
46231;DHT22;31949;51.404;-0.038;2023-04-15T11:13:17;11.60;99.90
46231;DHT22;31949;51.404;-0.038;2023-04-15T11:15:49;11.60;99.90
46231;DHT22;31949;51.404;-0.038;2023-04-15T11:18:24;11.60;99.90
46231;DHT22;31949;51.404;-0.038;2023-04-15T11:20:56;11.60;99.90
46231;DHT22;31949;51.404;-0.038;2023-04-15T11:25:57;11.80;99.90
46231;DHT22;31949;51.404;-0.038;2023-04-15T11:28:29;11.90;99.90
46231;DHT22;31949;51.404;-0.038;2023-04-15T11:30:59;12.00;99.90
46231;DHT22;31949;51.404;-0.038;2023-04-15T11:33:33;12.20;99.90
46231;DHT22;31949;51.404;-0.038;2023-04-15T11:36:01;12.10;99.90
46231;DHT22;31949;51.404;-0.038;2023-04-15T11:38:33;12.10;99.90
46231;DHT22;31949;51.404;-0.038;2023-04-15T11:41:02;12.10;99.90
46231;DHT22;31949;51.404;-0.038;2023-04-15T11:43:31;12.40;99.90
46231;DHT22;31949;51.404;-0.038;2023-04-15T11:46:01;12.60;99.90
46231;DHT22;31949;51.404;-0.038;2023-04-15T11:48:34;12.70;99.90
46231;DHT22;31949;51.404;-0.038;2023-04-15T11:51:05;12.90;99.90
46231;DHT22;31949;51.404;-0.038;2023-04-15T11:56:15;13.20;99.90
46231;DHT22;31949;51.404;-0.038;2023-04-15T11:58:42;13.20;99.90
46231;DHT22;31949;51.404;-0.038;2023-04-15T12:01:11;13.30;99.90
46231;DHT22;31949;51.404;-0.038;2023-04-15T12:03:44;13.20;99.90
46231;DHT22;31949;51.404;-0.038;2023-04-15T12:09:08;13.20;99.90
46231;DHT22;31949;51.404;-0.038;2023-04-15T12:16:40;13.10;99.90
46231;DHT22;31949;51.404;-0.038;2023-04-15T12:19:18;13.10;99.90
46231;DHT22;31949;51.404;-0.038;2023-04-15T12:21:49;13.40;99.90
46231;DHT22;31949;51.404;-0.038;2023-04-15T12:24:20;13.60;99.90
46231;DHT22;31949;51.404;-0.038;2023-04-15T12:27:04;13.50;99.90
46231;DHT22;31949;51.404;-0.038;2023-04-15T12:29:32;13.50;99.90
46231;DHT22;31949;51.404;-0.038;2023-04-15T12:32:10;13.40;99.90
46231;DHT22;31949;51.404;-0.038;2023-04-15T12:34:41;13.40;99.90
46231;DHT22;31949;51.404;-0.038;2023-04-15T12:37:10;13.60;99.90
46231;DHT22;31949;51.404;-0.038;2023-04-15T12:39:39;13.70;99.90
46231;DHT22;31949;51.404;-0.038;2023-04-15T12:42:07;13.90;99.90
46231;DHT22;31949;51.404;-0.038;2023-04-15T12:44:36;14.10;99.90
46231;DHT22;31949;51.404;-0.038;2023-04-15T12:47:04;14.00;99.90
46231;DHT22;31949;51.404;-0.038;2023-04-15T12:49:32;14.10;99.90
46231;DHT22;31949;51.404;-0.038;2023-04-15T12:52:00;14.10;99.90
46231;DHT22;31949;51.404;-0.038;2023-04-15T12:54:29;14.00;99.90
46231;DHT22;31949;51.404;-0.038;2023-04-15T12:56:56;13.90;99.90
46231;DHT22;31949;51.404;-0.038;2023-04-15T12:59:24;13.90;99.90
46231;DHT22;31949;51.404;-0.038;2023-04-15T13:01:51;13.90;99.90
46231;DHT22;31949;51.404;-0.038;2023-04-15T13:04:20;14.10;99.90
46231;DHT22;31949;51.404;-0.038;2023-04-15T13:06:48;14.30;99.90
46231;DHT22;31949;51.404;-0.038;2023-04-15T13:09:16;14.30;99.90
46231;DHT22;31949;51.404;-0.038;2023-04-15T13:11:43;14.30;99.90
46231;DHT22;31949;51.404;-0.038;2023-04-15T13:14:10;14.30;99.90
46231;DHT22;31949;51.404;-0.038;2023-04-15T13:16:39;14.30;99.90
46231;DHT22;31949;51.404;-0.038;2023-04-15T13:19:07;14.20;99.90
46231;DHT22;31949;51.404;-0.038;2023-04-15T13:21:34;14.10;99.90
46231;DHT22;31949;51.404;-0.038;2023-04-15T13:24:03;14.10;99.90
46231;DHT22;31949;51.404;-0.038;2023-04-15T13:26:33;14.00;99.90
46231;DHT22;31949;51.404;-0.038;2023-04-15T13:29:00;13.90;99.90
46231;DHT22;31949;51.404;-0.038;2023-04-15T13:31:28;13.90;99.90
46231;DHT22;31949;51.404;-0.038;2023-04-15T13:33:56;14.00;99.90
46231;DHT22;31949;51.404;-0.038;2023-04-15T13:36:23;14.10;99.90
46231;DHT22;31949;51.404;-0.038;2023-04-15T13:38:51;14.30;99.90
46231;DHT22;31949;51.404;-0.038;2023-04-15T13:41:18;14.50;99.90
46231;DHT22;31949;51.404;-0.038;2023-04-15T13:43:47;14.80;99.90
46231;DHT22;31949;51.404;-0.038;2023-04-15T13:46:14;15.00;99.90
46231;DHT22;31949;51.404;-0.038;2023-04-15T13:48:42;15.10;99.90
46231;DHT22;31949;51.404;-0.038;2023-04-15T13:51:09;15.20;99.90
46231;DHT22;31949;51.404;-0.038;2023-04-15T13:53:36;15.10;99.90
46231;DHT22;31949;51.404;-0.038;2023-04-15T13:56:06;15.20;99.90
46231;DHT22;31949;51.404;-0.038;2023-04-15T13:58:35;15.30;99.90
46231;DHT22;31949;51.404;-0.038;2023-04-15T14:01:03;15.10;99.90
46231;DHT22;31949;51.404;-0.038;2023-04-15T14:03:34;15.10;99.90
46231;DHT22;31949;51.404;-0.038;2023-04-15T14:06:04;15.00;99.90
46231;DHT22;31949;51.404;-0.038;2023-04-15T14:08:31;14.90;99.90
46231;DHT22;31949;51.404;-0.038;2023-04-15T14:10:59;14.80;99.90
46231;DHT22;31949;51.404;-0.038;2023-04-15T14:13:27;14.80;99.90
46231;DHT22;31949;51.404;-0.038;2023-04-15T14:15:55;14.70;99.90
46231;DHT22;31949;51.404;-0.038;2023-04-15T14:18:22;14.70;99.90
46231;DHT22;31949;51.404;-0.038;2023-04-15T14:20:50;14.80;99.90
46231;DHT22;31949;51.404;-0.038;2023-04-15T14:23:18;14.80;99.90
46231;DHT22;31949;51.404;-0.038;2023-04-15T14:25:45;14.80;99.90
46231;DHT22;31949;51.404;-0.038;2023-04-15T14:28:14;14.80;99.90
46231;DHT22;31949;51.404;-0.038;2023-04-15T14:30:42;14.80;99.90
46231;DHT22;31949;51.404;-0.038;2023-04-15T14:33:09;14.90;99.90
46231;DHT22;31949;51.404;-0.038;2023-04-15T14:35:37;14.90;99.90
46231;DHT22;31949;51.404;-0.038;2023-04-15T14:38:05;15.00;99.90
46231;DHT22;31949;51.404;-0.038;2023-04-15T14:40:36;15.00;99.90
46231;DHT22;31949;51.404;-0.038;2023-04-15T14:43:03;15.10;99.90
46231;DHT22;31949;51.404;-0.038;2023-04-15T14:45:31;15.10;99.90
46231;DHT22;31949;51.404;-0.038;2023-04-15T14:47:58;15.20;99.90
46231;DHT22;31949;51.404;-0.038;2023-04-15T14:50:26;15.30;99.90
46231;DHT22;31949;51.404;-0.038;2023-04-15T14:52:53;15.30;99.90
46231;DHT22;31949;51.404;-0.038;2023-04-15T14:55:20;15.30;99.90
46231;DHT22;31949;51.404;-0.038;2023-04-15T14:57:47;15.60;99.90
46231;DHT22;31949;51.404;-0.038;2023-04-15T15:00:15;15.80;99.90
46231;DHT22;31949;51.404;-0.038;2023-04-15T15:02:42;16.00;99.90
46231;DHT22;31949;51.404;-0.038;2023-04-15T15:05:10;16.20;99.90
46231;DHT22;31949;51.404;-0.038;2023-04-15T15:07:38;16.30;99.90
46231;DHT22;31949;51.404;-0.038;2023-04-15T15:10:07;16.50;99.90
46231;DHT22;31949;51.404;-0.038;2023-04-15T15:12:34;16.40;99.90
46231;DHT22;31949;51.404;-0.038;2023-04-15T15:15:03;16.20;99.90
46231;DHT22;31949;51.404;-0.038;2023-04-15T15:17:41;16.20;99.90
46231;DHT22;31949;51.404;-0.038;2023-04-15T15:20:09;16.20;99.90
46231;DHT22;31949;51.404;-0.038;2023-04-15T15:22:36;16.10;99.90
46231;DHT22;31949;51.404;-0.038;2023-04-15T15:25:04;16.00;99.90
46231;DHT22;31949;51.404;-0.038;2023-04-15T15:27:31;15.80;99.90
46231;DHT22;31949;51.404;-0.038;2023-04-15T15:29:58;15.60;99.90
46231;DHT22;31949;51.404;-0.038;2023-04-15T15:32:26;15.40;99.90
46231;DHT22;31949;51.404;-0.038;2023-04-15T15:34:53;15.30;99.90
46231;DHT22;31949;51.404;-0.038;2023-04-15T15:37:20;15.20;99.90
46231;DHT22;31949;51.404;-0.038;2023-04-15T15:39:48;15.20;99.90
46231;DHT22;31949;51.404;-0.038;2023-04-15T15:42:18;15.20;99.90
46231;DHT22;31949;51.404;-0.038;2023-04-15T15:44:45;15.20;99.90
46231;DHT22;31949;51.404;-0.038;2023-04-15T15:47:15;15.40;99.90
46231;DHT22;31949;51.404;-0.038;2023-04-15T15:49:42;15.30;99.90
46231;DHT22;31949;51.404;-0.038;2023-04-15T15:52:10;15.30;99.90
46231;DHT22;31949;51.404;-0.038;2023-04-15T15:54:39;15.30;99.90